Washington, Nebraska
Current Conditions -  °F | °C
As of 12:35 PM on Monday 20 Oct 2014 (Local Time) from KBTA Reporting Station
Clear Clear  
Wind Chill: 67°   Ceiling: Unl
Heat Index: 67°   Visibility: 10mi
Dew Point: 38°   Wind: 6mph
Humidity: 34%   Direction: 350°N
Pressure: 30.1"   Gusts: NA
Location:  41.4°N, 96.21°W
Report Text: KBTA 201735Z AUTO 35005KT 10SM CLR 20/03 A3010 RMK AO2 T01950032
Loading
Personal Weather Stations






























Interactive Weather Map
Tropical Storm Tracking
New forecast layout! Learn more

10-Day Weather Forecast

Advertisements
Track Severe Weather on mobile